Ana Sayfa
METAR-TAF:

METAR-TAF

Havaalanları :

Şam Havalimanı

Şam, Suriye

Enlem: 33-25N, Boylam: 036-31E, yükseklik: 608 m

Güncel hava durumu gözlemi

Rapor saat 00:00 UTC de 8 dakika önce yapıldı.
Rüzgar batı/güneybatıdan 8 kt
Sıcaklık 15°C
Nem 82%
Basınç 1014 hPa
Görüş mesafesi 10 km veya daha fazla
1500 m altında bulut yok ve kümülonimbus yok

METAR: OSDI 210000Z 25008KT CAVOK 15/12 Q1014

Saat: 03:08 (00:08 UTC)

Tahmin

Ayın 21'si saat 00 UTC'den ayın 22'si saat 06 UTC'ye kadar geçerli Tahmin
Rüzgar değişken yönden 3 kt
Görüş mesafesi: 8000 m
3000 ft yükseklikte az bulutlu
10000 ft yükseklikte parçalı bulutlu
Olasılık 40% :
Geçici
ayın 21'si saat 12 UTC'den ayın 21'si saat 18 UTC'ye kadar
Rüzgar batı/güneybatıdan 15 kt ve 25 kt'a kadar ani rüzgarlar
Görüş mesafesi: 6000 m
3000 ft yükseklikte az bulutlu
9000 ft yükseklikte parçalı bulutlu
hafif sağanak yağmurlar

TAF: OSDI 2100/2206 VRB03KT 8000 FEW030 SCT100 PROB40 TEMPO 2112/2118 24015G25KT 6000 -SHRA FEW030 SCT090

4.000'den fazla havaalanı için hava durumu gözlemleri ve tahminleri (METAR ve TAF raporları).

Kullanılabilir istasyonlar harita üzerinde sarı ve kırmızı noktalarla gösterilir.

İstasyonun adını görmek için fareyi noktanın üzerinde gezdirin.

Sonrasında hava gözlem ve tahminlerini görmek için tıklayın.

Haritayı değiştirmek için: yaklaştırmak için siyah artı işaretli yeşil düğmeye ve uzaklaştırmak için de eksi işaretli düğmeye hızla tıklayın; bitişik haritalar için yeşil okları kullanın.


METAR-TAF: